createdAt,value
2023-03-18T00:01:17.535Z,3.25
2023-03-18T00:06:31.467Z,2.83
2023-03-18T00:11:34.638Z,2.51
2023-03-18T00:16:37.338Z,2.26
2023-03-18T00:21:47.841Z,2.06
2023-03-18T00:26:59.094Z,2.01
2023-03-18T00:32:09.229Z,2.31
2023-03-18T00:37:20.089Z,2.51
2023-03-18T00:42:25.792Z,2.61
2023-03-18T00:47:33.593Z,2.68
2023-03-18T00:52:57.034Z,2.77
2023-03-18T00:58:03.729Z,2.82
2023-03-18T01:03:15.932Z,2.83
2023-03-18T01:08:44.305Z,2.85
2023-03-18T01:13:53.013Z,2.82
2023-03-18T01:19:00.542Z,2.78
2023-03-18T01:24:04.435Z,2.74
2023-03-18T01:29:12.526Z,2.69
2023-03-18T01:34:29.442Z,2.63
2023-03-18T01:39:37.170Z,2.61
2023-03-18T01:44:47.107Z,2.58
2023-03-18T01:49:52.453Z,2.55
2023-03-18T01:55:06.261Z,2.51
2023-03-18T02:00:13.015Z,2.48
2023-03-18T02:05:58.881Z,2.44
2023-03-18T02:11:09.318Z,2.39
2023-03-18T02:16:59.532Z,2.35
2023-03-18T02:22:29.931Z,2.27
2023-03-18T02:27:45.023Z,2.19
2023-03-18T02:32:51.238Z,2.11
2023-03-18T02:37:53.849Z,2.06
2023-03-18T02:43:17.742Z,2.01
2023-03-18T02:48:26.190Z,1.97
2023-03-18T02:53:28.957Z,1.94
2023-03-18T02:58:39.326Z,1.90
2023-03-18T03:03:46.457Z,1.86
2023-03-18T03:08:57.422Z,1.81
2023-03-18T03:14:00.819Z,1.78
2023-03-18T03:19:06.641Z,1.74
2023-03-18T03:24:16.442Z,1.73
2023-03-18T03:29:19.460Z,1.69
2023-03-18T03:34:24.993Z,1.65
2023-03-18T03:39:33.813Z,1.60
2023-03-18T03:44:52.264Z,1.56
2023-03-18T03:49:58.455Z,1.51
2023-03-18T03:55:14.168Z,1.44
2023-03-18T04:00:20.648Z,1.38
2023-03-18T04:05:33.647Z,1.34
2023-03-18T04:10:58.178Z,1.26
2023-03-18T04:16:17.264Z,1.25
2023-03-18T04:21:32.538Z,1.24
2023-03-18T04:26:39.389Z,1.22
2023-03-18T04:31:49.621Z,1.23
2023-03-18T04:36:52.736Z,1.22
2023-03-18T04:41:59.235Z,1.20
2023-03-18T04:47:19.509Z,1.20
2023-03-18T04:52:30.658Z,1.20
2023-03-18T04:57:42.614Z,1.20
2023-03-18T05:02:48.188Z,1.21
2023-03-18T05:07:50.581Z,1.23
2023-03-18T05:12:56.526Z,1.27
2023-03-18T05:18:06.834Z,1.34
2023-03-18T05:23:10.488Z,1.42
2023-03-18T05:28:30.083Z,1.52
2023-03-18T05:34:19.187Z,1.61
2023-03-18T05:39:22.440Z,1.76
2023-03-18T05:44:25.941Z,1.90
2023-03-18T05:49:31.471Z,2.07
2023-03-18T05:54:51.490Z,2.26
2023-03-18T06:00:08.981Z,2.38
2023-03-18T06:05:22.975Z,2.48
2023-03-18T06:10:26.457Z,2.58
2023-03-18T06:15:30.591Z,2.73
2023-03-18T06:20:42.498Z,2.94
2023-03-18T06:25:49.516Z,3.13
2023-03-18T06:30:58.058Z,3.36
2023-03-18T06:36:24.981Z,3.59
2023-03-18T06:41:33.403Z,3.87
2023-03-18T06:46:57.254Z,4.18
2023-03-18T06:52:11.777Z,4.51
2023-03-18T06:57:20.501Z,4.84
2023-03-18T07:02:39.388Z,5.20
2023-03-18T07:07:43.164Z,5.54
2023-03-18T07:13:05.360Z,5.82
2023-03-18T07:18:08.754Z,6.07
2023-03-18T07:23:20.247Z,6.39
2023-03-18T07:28:24.870Z,6.53
2023-03-18T07:33:27.471Z,6.42
2023-03-18T07:38:30.941Z,6.47
2023-03-18T07:43:45.619Z,6.61
2023-03-18T07:49:09.600Z,6.83
2023-03-18T07:54:32.853Z,7.09
2023-03-18T07:59:43.631Z,7.32
2023-03-18T08:04:59.253Z,7.52
2023-03-18T08:10:25.338Z,7.66
2023-03-18T08:15:33.121Z,7.93
2023-03-18T08:20:48.380Z,8.24
2023-03-18T08:26:26.976Z,8.61
2023-03-18T08:31:39.725Z,8.96
2023-03-18T08:36:43.160Z,9.25
2023-03-18T08:41:45.981Z,9.51
2023-03-18T08:46:52.795Z,9.75
2023-03-18T08:52:07.228Z,10.07
2023-03-18T08:57:10.675Z,10.36
2023-03-18T09:02:24.950Z,10.63
2023-03-18T09:07:28.532Z,10.77
2023-03-18T09:12:33.715Z,10.76
2023-03-18T09:18:12.257Z,10.87
2023-03-18T09:23:49.728Z,10.97
2023-03-18T09:29:01.767Z,11.09
2023-03-18T09:34:10.022Z,11.16
2023-03-18T09:39:22.815Z,11.29
2023-03-18T09:44:38.870Z,11.45
2023-03-18T09:50:25.327Z,11.55
2023-03-18T09:55:40.238Z,11.64
2023-03-18T10:00:47.956Z,11.69
2023-03-18T10:05:57.127Z,11.68
2023-03-18T10:11:06.901Z,11.75
2023-03-18T10:16:20.572Z,11.85
2023-03-18T10:21:52.897Z,11.99
2023-03-18T10:27:19.174Z,12.15
2023-03-18T10:33:08.589Z,12.32
2023-03-18T10:38:23.195Z,12.42
2023-03-18T10:43:39.366Z,12.57
2023-03-18T10:49:00.926Z,12.68
2023-03-18T10:54:27.951Z,12.75
2023-03-18T10:59:30.957Z,12.98
2023-03-18T11:04:46.507Z,13.10
2023-03-18T11:09:48.472Z,13.20
2023-03-18T11:15:00.745Z,13.31
2023-03-18T11:20:25.460Z,13.50
2023-03-18T11:25:29.267Z,13.72
2023-03-18T11:30:56.203Z,13.85
2023-03-18T11:36:37.672Z,13.84
2023-03-18T11:42:39.996Z,13.77
2023-03-18T11:47:46.508Z,13.75
2023-03-18T11:52:58.756Z,13.83
2023-03-18T11:58:55.433Z,13.96
2023-03-18T12:05:00.802Z,14.04
2023-03-18T12:10:54.453Z,14.21
2023-03-18T12:16:49.501Z,14.42
2023-03-18T12:22:04.294Z,14.55
2023-03-18T12:27:44.824Z,14.70
2023-03-18T12:33:16.209Z,14.79
2023-03-18T12:38:41.849Z,14.91
2023-03-18T12:44:15.028Z,15.06
2023-03-18T12:49:53.694Z,15.27
2023-03-18T12:55:11.454Z,15.34
2023-03-18T13:00:26.281Z,15.32
2023-03-18T13:06:05.579Z,15.30
2023-03-18T13:11:34.736Z,15.38
2023-03-18T13:16:41.381Z,15.50
2023-03-18T13:22:18.429Z,15.52
2023-03-18T13:27:38.360Z,15.52
2023-03-18T13:32:55.901Z,15.55
2023-03-18T13:38:34.107Z,15.55
2023-03-18T13:43:49.580Z,15.60
2023-03-18T13:48:59.893Z,15.57
2023-03-18T13:54:13.419Z,15.55
2023-03-18T13:59:37.382Z,15.43
2023-03-18T14:04:52.088Z,15.25
2023-03-18T14:10:18.318Z,15.18
2023-03-18T14:15:45.427Z,15.16
2023-03-18T14:21:04.519Z,15.21
2023-03-18T14:26:43.097Z,15.32
2023-03-18T14:32:11.684Z,15.43
2023-03-18T14:37:24.196Z,15.52
2023-03-18T14:42:58.475Z,15.66
2023-03-18T14:48:29.346Z,15.64
2023-03-18T14:53:57.132Z,15.59
2023-03-18T14:59:26.060Z,15.52
2023-03-18T15:04:48.721Z,15.35
2023-03-18T15:10:19.930Z,15.12
2023-03-18T15:15:39.621Z,14.93
2023-03-18T15:21:07.121Z,14.79
2023-03-18T15:26:53.742Z,14.70
2023-03-18T15:32:56.017Z,14.64
2023-03-18T15:38:12.888Z,14.62
2023-03-18T15:43:27.255Z,14.54
2023-03-18T15:48:43.300Z,14.43
2023-03-18T15:53:52.963Z,14.34
2023-03-18T15:59:22.323Z,14.21
2023-03-18T16:04:30.861Z,14.05
2023-03-18T16:09:41.378Z,13.87
2023-03-18T16:14:49.947Z,13.72
2023-03-18T16:19:55.704Z,13.53
2023-03-18T16:24:58.098Z,13.31
2023-03-18T16:30:00.932Z,13.08
2023-03-18T16:35:13.457Z,12.83
2023-03-18T16:40:28.475Z,12.59
2023-03-18T16:45:43.736Z,12.32
2023-03-18T16:51:09.678Z,12.01
2023-03-18T16:56:39.826Z,11.71
2023-03-18T17:01:43.946Z,11.43
2023-03-18T17:06:48.518Z,11.18
2023-03-18T17:11:58.271Z,10.93
2023-03-18T17:17:12.002Z,10.69
2023-03-18T17:22:33.747Z,10.43
2023-03-18T17:27:46.723Z,10.19
2023-03-18T17:32:50.497Z,9.95
2023-03-18T17:37:57.328Z,9.73
2023-03-18T17:43:04.116Z,9.51
2023-03-18T17:48:26.034Z,9.32
2023-03-18T17:53:38.566Z,9.12
2023-03-18T17:58:44.776Z,8.94
2023-03-18T18:03:47.874Z,8.75
2023-03-18T18:08:51.531Z,8.59
2023-03-18T18:13:58.185Z,8.46
2023-03-18T18:19:08.795Z,8.32
2023-03-18T18:24:26.238Z,8.18
2023-03-18T18:29:32.621Z,7.99
2023-03-18T18:34:39.028Z,7.85
2023-03-18T18:39:43.056Z,7.72
2023-03-18T18:44:54.440Z,7.61
2023-03-18T18:50:01.986Z,7.48
2023-03-18T18:55:06.992Z,7.37
2023-03-18T19:00:20.774Z,7.29
2023-03-18T19:05:23.789Z,7.22
2023-03-18T19:10:30.845Z,7.15
2023-03-18T19:15:43.577Z,7.11
2023-03-18T19:20:48.251Z,7.05
2023-03-18T19:25:54.338Z,7.04
2023-03-18T19:31:04.986Z,7.00
2023-03-18T19:36:16.656Z,6.96
2023-03-18T19:41:19.879Z,6.90
2023-03-18T19:46:39.337Z,6.86
2023-03-18T19:51:49.744Z,6.80
2023-03-18T19:56:54.184Z,6.73
2023-03-18T20:01:58.766Z,6.64
2023-03-18T20:07:04.670Z,6.54
2023-03-18T20:12:40.250Z,6.45
2023-03-18T20:17:45.647Z,6.36
2023-03-18T20:22:57.057Z,6.31
2023-03-18T20:28:01.216Z,6.29
2023-03-18T20:33:04.541Z,6.24
2023-03-18T20:38:38.103Z,6.22
2023-03-18T20:43:41.298Z,6.21
2023-03-18T20:48:44.439Z,6.21
2023-03-18T20:53:48.881Z,6.21
2023-03-18T20:58:53.370Z,6.20
2023-03-18T21:04:00.504Z,6.16
2023-03-18T21:09:06.950Z,6.10
2023-03-18T21:14:15.561Z,6.01
2023-03-18T21:19:25.391Z,5.91
2023-03-18T21:24:30.651Z,5.77
2023-03-18T21:29:34.114Z,5.64
2023-03-18T21:34:36.977Z,5.51
2023-03-18T21:39:44.001Z,5.37
2023-03-18T21:44:46.404Z,5.25
2023-03-18T21:49:51.777Z,5.14
2023-03-18T21:54:58.947Z,5.06
2023-03-18T22:00:03.535Z,4.98
2023-03-18T22:05:26.146Z,4.92
2023-03-18T22:10:31.796Z,4.85
2023-03-18T22:15:56.709Z,4.78
2023-03-18T22:21:01.249Z,4.72
2023-03-18T22:26:07.829Z,4.65
2023-03-18T22:31:18.203Z,4.56
2023-03-18T22:36:30.082Z,4.46
2023-03-18T22:41:38.054Z,4.38
2023-03-18T22:46:46.597Z,4.33
2023-03-18T22:52:30.519Z,4.26
2023-03-18T22:57:33.474Z,4.21
2023-03-18T23:02:42.774Z,4.17
2023-03-18T23:07:50.721Z,4.13
2023-03-18T23:12:53.550Z,4.12
2023-03-18T23:17:56.469Z,4.12
2023-03-18T23:23:01.867Z,4.12
2023-03-18T23:28:04.812Z,4.11
2023-03-18T23:33:09.681Z,4.10
2023-03-18T23:38:12.175Z,4.07
2023-03-18T23:43:33.078Z,4.04
2023-03-18T23:48:35.914Z,3.98
2023-03-18T23:53:40.837Z,3.92
2023-03-18T23:58:43.670Z,3.85
